Time;durP1;ratioP1;P1;durP2;ratioP2;P2;SDS_P1;SDS_P2;PMS_P1;PMS_P2;Temp;Humidity;BMP_temperature;BMP_pressure;BME280_temperature;BME280_humidity;BME280_pressure;Samples;Min_cycle;Max_cycle;Signal;HPM_P1;HPM_P2
2023/10/08 00:01:33;;;;;;;0.50;0.50;;;;;;;;;;5118357;27;20084;-89
2023/10/08 00:04:02;;;;;;;1.85;0.40;;;;;;;;;;5102851;28;20047;-92
2023/10/08 00:06:28;;;;;;;0.55;0.50;;;;;;;;;;5098563;28;20081;-91
2023/10/08 00:08:59;;;;;;;0.50;0.50;;;;;;;;;;5098318;28;20047;-91
2023/10/08 00:11:26;;;;;;;5.28;0.43;;;;;;;;;;5118336;27;20038;-88
2023/10/08 00:13:56;;;;;;;0.85;0.50;;;;;;;;;;5099816;28;20055;-89
2023/10/08 00:16:22;;;;;;;2.05;0.60;;;;;;;;;;5114818;28;20380;-88
2023/10/08 00:18:48;;;;;;;1.10;0.50;;;;;;;;;;5120157;27;20059;-91
2023/10/08 00:21:33;;;;;;;0.82;0.80;;;;;;;;;;5136770;27;20125;-91
2023/10/08 00:23:59;;;;;;;1.08;0.65;;;;;;;;;;5137144;27;20042;-88
2023/10/08 00:26:32;;;;;;;2.97;0.93;;;;;;;;;;5121476;27;20039;-88
2023/10/08 00:28:59;;;;;;;0.68;0.65;;;;;;;;;;5122427;27;20574;-91
2023/10/08 00:31:30;;;;;;;0.85;0.70;;;;;;;;;;5119812;27;20080;-91
2023/10/08 00:33:56;;;;;;;1.02;0.70;;;;;;;;;;5120547;27;20047;-89
2023/10/08 00:36:23;;;;;;;1.45;1.13;;;;;;;;;;5101460;27;20115;-88
2023/10/08 00:38:58;;;;;;;5.03;0.70;;;;;;;;;;5137931;27;20043;-86
2023/10/08 00:41:28;;;;;;;3.28;1.17;;;;;;;;;;5137523;27;20038;-90
2023/10/08 00:43:56;;;;;;;4.03;1.20;;;;;;;;;;5121778;27;20372;-88
2023/10/08 00:46:24;;;;;;;3.63;1.15;;;;;;;;;;5124733;27;20088;-90
2023/10/08 00:48:54;;;;;;;1.38;0.80;;;;;;;;;;5124999;27;20041;-90
2023/10/08 00:54:06;;;;;;;2.72;1.02;;;;;;;;;;5116700;27;20103;-87
2023/10/08 00:59:21;;;;;;;1.75;0.80;;;;;;;;;;5083002;28;20111;-86
2023/10/08 01:01:51;;;;;;;1.75;0.90;;;;;;;;;;5086341;27;20039;-91
2023/10/08 01:04:33;;;;;;;1.33;0.70;;;;;;;;;;5100685;27;20035;-92
2023/10/08 01:07:01;;;;;;;2.05;0.80;;;;;;;;;;5100260;27;20491;-92
2023/10/08 01:09:34;;;;;;;1.35;0.90;;;;;;;;;;5120068;27;20054;-90
2023/10/08 01:14:50;;;;;;;2.60;0.90;;;;;;;;;;5137406;27;20091;-91
2023/10/08 01:17:19;;;;;;;0.88;0.82;;;;;;;;;;5118380;27;20125;-92
2023/10/08 01:19:55;;;;;;;2.05;1.00;;;;;;;;;;5099699;27;20204;-91
2023/10/08 01:22:22;;;;;;;1.02;0.90;;;;;;;;;;5099893;27;20051;-91
2023/10/08 01:24:49;;;;;;;2.20;1.02;;;;;;;;;;5100125;27;20042;-90
2023/10/08 01:27:24;;;;;;;2.97;0.70;;;13.80;17.30;;;;;;5099638;27;20047;-89
2023/10/08 01:29:50;;;;;;;1.73;0.70;;;;;;;;;;5087997;27;20059;-88
2023/10/08 01:32:17;;;;;;;2.75;1.10;;;;;;;;;;5137265;27;20042;-86
2023/10/08 01:34:45;;;;;;;2.35;0.90;;;;;;;;;;5120629;27;20045;-88
2023/10/08 01:37:13;;;;;;;5.53;0.82;;;;;;;;;;5106826;27;20130;-86
2023/10/08 01:39:42;;;;;;;2.67;0.80;;;;;;;;;;5103435;27;20031;-87
2023/10/08 01:42:16;;;;;;;2.13;0.88;;;;;;;;;;5106560;27;20089;-86
2023/10/08 01:44:50;;;;;;;1.00;0.93;;;;;;;;;;5118609;27;20042;-87
2023/10/08 01:47:16;;;;;;;3.97;0.88;;;;;;;;;;5137963;27;20103;-89
2023/10/08 01:49:46;;;;;;;4.20;1.08;;;;;;;;;;5121758;27;20053;-91
2023/10/08 01:52:17;;;;;;;1.00;0.90;;;;;;;;;;5122248;27;20053;-91
2023/10/08 01:54:44;;;;;;;7.15;0.88;;;;;;;;;;5120281;27;20567;-91
2023/10/08 01:57:12;;;;;;;2.88;0.68;;;;;;;;;;5102088;27;20074;-88
2023/10/08 01:59:38;;;;;;;8.57;1.20;;;;;;;;;;5099995;27;20426;-92
2023/10/08 02:02:06;;;;;;;1.85;1.20;;;;;;;;;;5106491;27;20043;-91
2023/10/08 02:04:35;;;;;;;1.88;1.17;;;;;;;;;;5120080;27;20081;-91
2023/10/08 02:07:03;;;;;;;3.03;0.88;;;;;;;;;;5118707;27;20514;-87
2023/10/08 02:09:29;;;;;;;1.17;1.00;;;;;;;;;;5099406;27;20035;-90
2023/10/08 02:11:56;;;;;;;4.50;1.13;;;;;;;;;;5115780;27;20043;-91
2023/10/08 02:14:23;;;;;;;2.28;1.25;;;;;;;;;;5099121;27;20483;-90
2023/10/08 02:16:52;;;;;;;4.28;1.05;;;;;;;;;;5134247;27;20134;-87
2023/10/08 02:19:21;;;;;;;2.90;1.60;;;;;;;;;;5098669;27;20057;-89
2023/10/08 02:21:47;;;;;;;2.20;0.93;;;;;;;;;;5099446;27;20483;-89
2023/10/08 02:24:13;;;;;;;5.32;1.50;;;;;;;;;;5134062;27;20070;-90
2023/10/08 02:26:39;;;;;;;1.27;1.00;;;;;;;;;;5115791;27;20043;-90
2023/10/08 02:29:10;;;;;;;2.13;1.42;;;;;;;;;;5134607;27;20043;-91
2023/10/08 02:31:40;;;;;;;3.15;1.33;;;;;;;;;;5098618;27;20446;-92
2023/10/08 02:34:08;;;;;;;7.60;1.20;;;;;;;;;;5135857;27;20035;-91
2023/10/08 02:36:40;;;;;;;6.95;1.30;;;;;;;;;;5115555;27;20050;-92
2023/10/08 02:39:13;;;;;;;1.02;0.93;;;;;;;;;;5115929;27;20047;-92
2023/10/08 02:41:45;;;;;;;4.38;1.17;;;;;;;;;;5098718;27;20035;-90
2023/10/08 02:44:12;;;;;;;3.80;1.10;;;;;;;;;;5108217;27;20047;-89
2023/10/08 02:46:42;;;;;;;1.30;1.08;;;;;;;;;;5136350;27;20167;-92
2023/10/08 02:49:12;;;;;;;1.05;0.95;;;;;;;;;;5154439;27;20038;-91
2023/10/08 02:51:40;;;;;;;4.63;1.10;;;;;;;;;;5119170;27;20057;-87
2023/10/08 02:54:08;;;;;;;1.65;1.40;;;;;;;;;;5109384;28;20065;-90
2023/10/08 02:56:34;;;;;;;6.25;1.33;;;;;;;;;;5098773;28;20035;-90
2023/10/08 02:59:01;;;;;;;3.28;1.10;;;;;;;;;;5133789;28;20071;-91
2023/10/08 03:01:27;;;;;;;1.85;1.50;;;;;;;;;;5098232;28;20496;-91
2023/10/08 03:04:03;;;;;;;3.60;1.65;;;;;;;;;;5098512;28;20100;-90
2023/10/08 03:06:32;;;;;;;3.15;1.27;;;;;;;;;;5110907;27;20047;-87
2023/10/08 03:09:05;;;;;;;1.75;1.20;;;;;;;;;;5118740;27;20099;-90
2023/10/08 03:11:31;;;;;;;1.90;1.10;;;;;;;;;;5118403;27;20129;-87
2023/10/08 03:13:58;;;;;;;1.38;1.23;;;;;;;;;;5115454;27;20042;-87
2023/10/08 03:16:28;;;;;;;3.03;1.42;;;;;;;;;;5100080;28;20051;-86
2023/10/08 03:18:57;;;;;;;4.43;1.33;;;;;;;;;;5119360;27;20104;-85
2023/10/08 03:21:48;;;;;;;2.85;1.30;;;;;;;;;;5137163;27;20093;-89
2023/10/08 03:24:12;;;;;;;1.58;1.30;;;;;;;;;;5118760;27;20190;-86
2023/10/08 03:26:40;;;;;;;4.25;1.30;;;;;;;;;;5137093;27;20039;-89
2023/10/08 03:29:08;;;;;;;3.85;1.50;;;;;;;;;;5119250;27;20087;-94
2023/10/08 03:31:49;;;;;;;2.08;1.33;;;;;;;;;;5142785;27;20043;-86
2023/10/08 03:34:19;;;;;;;1.95;1.10;;;;;;;;;;5139225;27;20046;-87
2023/10/08 03:36:47;;;;;;;1.90;1.20;;;;;;;;;;5128618;27;20487;-89
2023/10/08 03:39:18;;;;;;;3.92;1.70;;;;;;;;;;5118679;27;20051;-89
2023/10/08 03:41:59;;;;;;;3.83;1.33;;;;;;;;;;5101763;27;20040;-86
2023/10/08 03:44:25;;;;;;;1.40;1.30;;;;;;;;;;5101946;27;20160;-89
2023/10/08 03:46:52;;;;;;;2.35;1.20;;;;;;;;;;5101571;27;20047;-88
2023/10/08 03:51:51;;;;;;;3.40;1.35;;;;;;;;;;5139401;27;20096;-88
2023/10/08 03:54:29;;;;;;;2.67;1.70;;;;;;;;;;5122446;27;20081;-90
2023/10/08 03:56:56;;;;;;;1.67;1.25;;;;;;;;;;5131637;27;20047;-87
2023/10/08 03:59:31;;;;;;;1.58;1.10;;;;;;;;;;5121532;27;20042;-87
2023/10/08 04:02:13;;;;;;;1.67;1.30;;;;;;;;;;5138890;27;20039;-87
2023/10/08 04:04:49;;;;;;;5.50;1.40;;;;;;;;;;5140947;27;20095;-86
2023/10/08 04:07:38;;;;;;;2.17;1.40;;;;;;;;;;5132158;27;20070;-87
2023/10/08 04:12:50;;;;;;;2.63;1.58;;;;;;;;;;5101846;27;20046;-89
2023/10/08 04:15:16;;;;;;;3.20;1.50;;;;;;;;;;5101029;27;20038;-90
2023/10/08 04:17:50;;;;;;;2.72;1.70;;;;;;;;;;5101028;27;20551;-89
2023/10/08 04:23:04;;;;;;;3.92;1.45;;;;;;;;;;5138374;27;20087;-93
2023/10/08 04:25:31;;;;;;;6.07;1.70;;;;;;;;;;5150169;27;20035;-91
2023/10/08 04:27:58;;;;;;;2.60;1.67;;;13.80;18.60;;;;;;5120898;27;20049;-91
2023/10/08 04:30:32;;;;;;;4.95;1.90;;;;;;;;;;5120032;27;20407;-90
2023/10/08 04:33:11;;;;;;;6.80;1.85;;;;;;;;;;5080807;28;20047;-92
2023/10/08 04:36:01;;;;;;;6.00;1.75;;;;;;;;;;5101809;27;20057;-92
2023/10/08 04:38:28;;;;;;;2.95;1.58;;;;;;;;;;5118106;27;20572;-92
2023/10/08 04:41:01;;;;;;;2.00;1.40;;;;;;;;;;5101009;27;20596;-91
2023/10/08 04:43:27;;;;;;;2.97;1.58;;;;;;;;;;5101017;27;20207;-87
2023/10/08 04:46:05;;;;;;;4.03;1.60;;;;;;;;;;5100801;27;20125;-89
2023/10/08 04:48:36;;;;;;;2.97;1.40;;;;;;;;;;5102227;27;20075;-92
2023/10/08 04:51:03;;;;;;;4.22;1.80;;;;;;;;;;5106288;27;20188;-90
2023/10/08 04:53:36;;;;;;;6.35;1.77;;;;;;;;;;5104685;27;20075;-92
2023/10/08 04:56:06;;;;;;;4.70;1.70;;;;;;;;;;5109187;27;20042;-87
2023/10/08 04:58:35;;;;;;;3.30;1.40;;;;;;;;;;5122374;27;20059;-92
2023/10/08 05:01:17;;;;;;;6.05;2.20;;;;;;;;;;5138369;27;20077;-92
2023/10/08 05:09:12;;;;;;;4.55;1.67;;;;;;;;;;5124300;27;20076;-91
2023/10/08 05:17:09;;;;;;;4.78;2.08;;;;;;;;;;5118144;27;20479;-88
2023/10/08 05:19:56;;;;;;;6.95;1.52;;;;;;;;;;5134475;27;20463;-93
2023/10/08 05:43:48;;;;;;;7.65;1.98;;;;;;;;;;5137205;27;20051;-91
2023/10/08 05:49:26;;;;;;;6.63;1.80;;;;;;;;;;5136905;27;20051;-90
2023/10/08 06:02:29;;;;;;;2.70;1.40;;;;;;;;;;5134351;27;20050;-88
2023/10/08 06:13:13;;;;;;;3.50;1.88;;;;;;;;;;5120617;27;20053;-91
2023/10/08 06:18:28;;;;;;;6.13;2.05;;;;;;;;;;5116904;27;20047;-89
2023/10/08 06:20:58;;;;;;;6.47;1.60;;;;;;;;;;5082101;27;20063;-87
2023/10/08 06:23:24;;;;;;;3.28;1.60;;;;;;;;;;5098297;27;20559;-86
2023/10/08 06:25:56;;;;;;;7.05;2.13;;;;;;;;;;5099157;27;20070;-87
2023/10/08 06:28:25;;;;;;;5.28;1.63;;;;;;;;;;5135220;27;20055;-86
2023/10/08 06:30:58;;;;;;;9.40;2.25;;;;;;;;;;5101333;27;20107;-88
2023/10/08 06:33:33;;;;;;;6.05;1.95;;;;;;;;;;5110436;27;20095;-86
2023/10/08 06:36:13;;;;;;;11.15;1.90;;;;;;;;;;5119460;27;20096;-88
2023/10/08 06:38:42;;;;;;;7.53;2.13;;;;;;;;;;5135788;27;20047;-90
2023/10/08 06:41:15;;;;;;;4.53;2.20;;;;;;;;;;5117207;28;20047;-91
2023/10/08 06:43:49;;;;;;;2.25;1.50;;;;;;;;;;5120170;27;20046;-89
2023/10/08 06:46:21;;;;;;;12.95;2.20;;;;;;;;;;5136887;27;20058;-87
2023/10/08 06:48:49;;;;;;;5.10;2.30;;;;;;;;;;5155304;27;20043;-89
2023/10/08 06:51:17;;;;;;;5.97;1.85;;;;;;;;;;5119635;27;20042;-91
2023/10/08 06:53:47;;;;;;;4.10;1.90;;;;;;;;;;5151214;27;20082;-92
2023/10/08 06:56:18;;;;;;;6.28;1.50;;;;;;;;;;5134227;27;20074;-90
2023/10/08 06:58:48;;;;;;;4.50;2.22;;;;;;;;;;5134122;28;20110;-88
2023/10/08 07:01:38;;;;;;;4.07;1.73;;;;;;;;;;5116022;28;20053;-90
2023/10/08 07:04:06;;;;;;;6.57;2.10;;;;;;;;;;5116005;28;20051;-88
2023/10/08 07:06:33;;;;;;;8.82;3.17;;;;;;;;;;5137904;27;20043;-85
2023/10/08 07:09:05;;;;;;;2.53;1.60;;;;;;;;;;5133591;28;20039;-85
2023/10/08 07:11:35;;;;;;;6.93;2.28;;;;;;;;;;5097861;28;20096;-86
2023/10/08 07:14:04;;;;;;;3.08;1.77;;;;;;;;;;5097798;28;20047;-89
2023/10/08 07:16:34;;;;;;;4.07;1.60;;;;;;;;;;5098369;28;20089;-87
2023/10/08 07:19:15;;;;;;;4.13;1.60;;;;;;;;;;5111270;27;20054;-89
2023/10/08 07:21:44;;;;;;;8.35;1.92;;;;;;;;;;5118275;27;20144;-87
2023/10/08 07:24:19;;;;;;;6.80;1.98;;;;;;;;;;5117992;27;20503;-86
2023/10/08 07:26:49;;;;;;;10.23;2.58;;;;;;;;;;5117922;27;20042;-87
2023/10/08 07:29:19;;;;;;;6.13;1.50;;;;;;;;;;5135814;27;20042;-90
2023/10/08 07:31:52;;;;;;;3.30;1.63;;;;;;;;;;5115757;27;20045;-91
2023/10/08 07:34:25;;;;;;;6.78;1.85;;;;;;;;;;5153852;27;20134;-89
2023/10/08 07:36:52;;;;;;;8.60;3.22;;;;;;;;;;5118363;27;20075;-90
2023/10/08 07:41:58;;;;;;;3.67;1.63;;;;;;;;;;5114719;27;20039;-89
2023/10/08 07:44:28;;;;;;;5.53;1.95;;;;;;;;;;5097993;28;20039;-90
2023/10/08 07:46:54;;;;;;;8.50;2.13;;;;;;;;;;5099183;28;20039;-92
2023/10/08 07:49:23;;;;;;;5.40;2.28;;;;;;;;;;5133502;27;20039;-86
2023/10/08 07:51:52;;;;;;;6.82;2.05;;;;;;;;;;5126479;27;20118;-87
2023/10/08 07:54:23;;;;;;;3.95;1.83;;;;;;;;;;5124837;27;20082;-85
2023/10/08 07:56:50;;;;;;;8.88;2.00;;;;;;;;;;5119854;27;20130;-86
2023/10/08 07:59:17;;;;;;;6.65;2.70;;;;;;;;;;5115512;27;20043;-87
2023/10/08 08:01:47;;;;;;;5.93;2.10;;;;;;;;;;5097484;28;20050;-86
2023/10/08 08:04:22;;;;;;;7.18;1.63;;;;;;;;;;5100293;27;20093;-89
2023/10/08 08:06:52;;;;;;;12.07;1.98;;;;;;;;;;5102254;27;20511;-86
2023/10/08 08:09:23;;;;;;;11.73;3.05;;;;;;;;;;5100320;27;20448;-86
2023/10/08 08:11:49;;;;;;;11.10;2.00;;;;;;;;;;5114227;27;20076;-90
2023/10/08 08:14:24;;;;;;;11.40;1.83;;;;;;;;;;5102204;27;20043;-91
2023/10/08 08:16:51;;;;;;;2.67;1.48;;;;;;;;;;5118295;27;20441;-90
2023/10/08 08:19:24;;;;;;;7.10;1.83;;;;;;;;;;5118321;27;20047;-92
2023/10/08 08:21:52;;;;;;;5.93;1.67;;;;;;;;;;5100818;27;20075;-88
2023/10/08 08:24:28;;;;;;;2.92;1.48;;;;;;;;;;5100799;27;20043;-87
2023/10/08 08:27:01;;;;;;;2.97;1.83;;;;;;;;;;5100395;27;20047;-87
2023/10/08 08:29:33;;;;;;;5.07;1.40;;;;;;;;;;5118109;27;20040;-87
2023/10/08 08:32:04;;;;;;;6.47;2.00;;;;;;;;;;5120945;27;20038;-87
2023/10/08 08:34:31;;;;;;;8.95;1.83;;;;;;;;;;5121847;27;20051;-86
2023/10/08 08:36:57;;;;;;;9.52;2.45;;;;;;;;;;5153616;27;20095;-87
2023/10/08 08:39:32;;;;;;;6.93;2.30;;;;;;;;;;5135804;27;20050;-85
2023/10/08 08:42:01;;;;;;;9.70;1.83;;;;;;;;;;5101553;27;20047;-86
2023/10/08 08:44:39;;;;;;;14.70;1.95;;;;;;;;;;5100251;27;20072;-89
2023/10/08 08:47:07;;;;;;;14.63;2.28;;;;;;;;;;5100576;27;20050;-88
2023/10/08 08:49:37;;;;;;;8.52;2.33;;;;;;;;;;5120898;27;20039;-89
2023/10/08 08:52:04;;;;;;;9.20;2.72;;;;;;;;;;5137997;27;20498;-89
2023/10/08 08:54:33;;;;;;;3.13;1.75;;;;;;;;;;5120641;27;20039;-86
2023/10/08 08:57:04;;;;;;;9.10;2.58;;;;;;;;;;5120606;27;20038;-85
2023/10/08 08:59:30;;;;;;;3.90;1.45;;;;;;;;;;5101200;27;20047;-88
2023/10/08 09:01:58;;;;;;;6.13;1.98;;;;;;;;;;5099762;27;20039;-85
2023/10/08 09:04:32;;;;;;;7.50;2.17;;;14.50;7.80;;;;;;5109942;27;20043;-86
2023/10/08 09:07:04;;;;;;;7.63;1.63;;;;;;;;;;5119975;27;20133;-86
2023/10/08 09:09:34;;;;;;;7.35;2.28;;;;;;;;;;5115195;27;20035;-86
2023/10/08 09:12:01;;;;;;;5.72;1.75;;;;;;;;;;5099827;27;20072;-86
2023/10/08 09:14:31;;;;;;;5.88;1.80;;;;;;;;;;5124506;27;20035;-85
2023/10/08 09:16:59;;;;;;;8.68;2.25;;;;;;;;;;5120162;27;20043;-87
2023/10/08 09:19:26;;;;;;;6.35;2.33;;;;;;;;;;5119830;27;20046;-86
2023/10/08 09:22:04;;;;;;;8.98;2.30;;;;;;;;;;5119964;27;20482;-88
2023/10/08 09:24:31;;;;;;;6.32;2.10;;;;;;;;;;5110025;27;20091;-85
2023/10/08 09:26:58;;;;;;;5.47;1.60;;;;;;;;;;5099340;27;20039;-86
2023/10/08 09:29:25;;;;;;;8.80;1.92;;;;;;;;;;5099398;27;20039;-85
2023/10/08 09:31:55;;;;;;;5.93;1.60;;;;;;;;;;5116699;27;20051;-85
2023/10/08 09:34:22;;;;;;;6.45;2.38;;;;;;;;;;5124379;27;20039;-90
2023/10/08 09:36:49;;;;;;;8.63;1.92;;;;;;;;;;5119964;27;20099;-87
2023/10/08 09:39:23;;;;;;;8.02;2.03;;;;;;;;;;5154914;27;20046;-87
2023/10/08 09:41:50;;;;;;;9.80;2.53;;;;;;;;;;5119575;27;20039;-87
2023/10/08 09:44:19;;;;;;;4.68;1.55;;;14.90;1.00;;;;;;5148414;27;20152;-90
2023/10/08 09:46:48;;;;;;;9.45;2.00;;;;;;;;;;5115827;27;20511;-91
2023/10/08 09:49:16;;;;;;;5.03;2.25;;;;;;;;;;5153219;27;20054;-88
2023/10/08 09:51:43;;;;;;;8.02;1.77;;;15.10;1.00;;;;;;5136565;27;20047;-90
2023/10/08 09:54:20;;;;;;;10.63;1.85;;;;;;;;;;5118951;27;20035;-88
2023/10/08 09:56:46;;;;;;;11.10;2.15;;;;;;;;;;5135894;27;20038;-86
2023/10/08 09:59:14;;;;;;;4.30;1.73;;;;;;;;;;5100692;27;20043;-86
2023/10/08 10:01:42;;;;;;;8.18;2.08;;;;;;;;;;5098312;27;20437;-87
2023/10/08 10:04:13;;;;;;;7.28;1.88;;;;;;;;;;5098464;27;20047;-87
2023/10/08 10:06:39;;;;;;;14.68;1.60;;;;;;;;;;5098529;27;20049;-85
2023/10/08 10:09:08;;;;;;;5.82;1.95;;;;;;;;;;5113442;27;20126;-87
2023/10/08 10:11:35;;;;;;;5.82;1.90;;;15.50;1.00;;;;;;5109229;27;20043;-87
2023/10/08 10:14:06;;;;;;;6.57;1.92;;;15.50;1.00;;;;;;5099147;27;20051;-88
2023/10/08 10:16:33;;;;;;;6.25;1.55;;;;;;;;;;5099269;27;20483;-88
2023/10/08 10:19:00;;;;;;;5.30;1.65;;;15.40;1.00;;;;;;5112757;27;20087;-88
2023/10/08 10:21:27;;;;;;;10.50;2.65;;;;;;;;;;5101253;27;20046;-86
2023/10/08 10:23:54;;;;;;;8.00;1.95;;;;;;;;;;5118563;27;20038;-86
2023/10/08 10:26:26;;;;;;;9.05;2.53;;;;;;;;;;5135230;27;20034;-88
2023/10/08 10:29:11;;;;;;;2.80;1.23;;;;;;;;;;5123340;27;20077;-87
2023/10/08 10:31:47;;;;;;;8.05;1.73;;;;;;;;;;5114878;27;20126;-85
2023/10/08 10:34:16;;;;;;;5.68;1.48;;;15.50;1.00;;;;;;5114821;27;20522;-85
2023/10/08 10:36:42;;;;;;;8.18;2.80;;;;;;;;;;5096478;27;20506;-85
2023/10/08 10:39:28;;;;;;;3.95;1.50;;;15.60;1.00;;;;;;5112591;27;20046;-84
2023/10/08 10:42:06;;;;;;;5.95;2.28;;;15.40;1.00;;;;;;5083103;27;20074;-84
2023/10/08 10:44:36;;;;;;;4.63;1.85;;;;;;;;;;5097751;28;20055;-85
2023/10/08 10:52:51;;;;;;;7.65;1.63;;;;;;;;;;5120672;27;20113;-86
2023/10/08 10:57:54;;;;;;;9.38;2.00;;;16.00;1.00;;;;;;5135211;27;20129;-85
2023/10/08 11:03:09;;;;;;;4.90;1.63;;;15.90;1.00;;;;;;5135515;27;20133;-83
2023/10/08 11:05:37;;;;;;;5.68;2.28;;;;;;;;;;5136584;27;20522;-83
2023/10/08 11:08:06;;;;;;;11.50;2.22;;;;;;;;;;5119668;27;20617;-91
2023/10/08 11:10:33;;;;;;;5.35;1.77;;;;;;;;;;5104232;28;20086;-86
2023/10/08 11:13:02;;;;;;;8.73;3.10;;;;;;;;;;5098992;28;20080;-86
2023/10/08 11:15:40;;;;;;;4.18;1.63;;;16.20;1.00;;;;;;5099213;28;20043;-85
2023/10/08 11:18:12;;;;;;;7.10;2.40;;;;;;;;;;5085726;28;20054;-85
2023/10/08 11:20:44;;;;;;;4.05;1.52;;;;;;;;;;5115152;28;20063;-84
2023/10/08 11:23:29;;;;;;;9.10;1.73;;;;;;;;;;5098591;28;20453;-89
2023/10/08 11:26:03;;;;;;;8.13;2.17;;;16.40;1.00;;;;;;5118490;27;20038;-88
2023/10/08 11:28:41;;;;;;;12.73;2.13;;;;;;;;;;5138058;27;20058;-90
2023/10/08 11:31:10;;;;;;;6.75;1.70;;;16.20;1.00;;;;;;5119981;27;20043;-89
2023/10/08 11:33:38;;;;;;;8.40;1.70;;;16.30;1.00;;;;;;5102792;27;20039;-87
2023/10/08 11:36:06;;;;;;;5.75;1.60;;;;;;;;;;5078467;28;20039;-91
2023/10/08 11:38:39;;;;;;;4.63;1.75;;;;;;;;;;5093511;27;20483;-85
2023/10/08 11:41:21;;;;;;;5.05;1.80;;;;;;;;;;5118625;27;20043;-88
2023/10/08 11:43:53;;;;;;;5.88;1.60;;;16.60;1.00;;;;;;5119286;27;20445;-85
2023/10/08 11:46:20;;;;;;;6.97;1.80;;;;;;;;;;5139349;27;20043;-87
2023/10/08 11:48:47;;;;;;;2.45;1.48;;;;;;;;;;5121987;27;20042;-87
2023/10/08 11:51:16;;;;;;;8.95;1.73;;;;;;;;;;5121789;27;20046;-88
2023/10/08 11:53:44;;;;;;;5.90;1.55;;;;;;;;;;5109138;28;20040;-90
2023/10/08 11:56:13;;;;;;;7.43;2.00;;;;;;;;;;5080943;28;20048;-88
2023/10/08 11:58:44;;;;;;;7.43;2.03;;;;;;;;;;5082069;27;20036;-90
2023/10/08 12:01:17;;;;;;;5.78;2.03;;;;;;;;;;5118492;27;20040;-86
2023/10/08 12:03:43;;;;;;;5.72;1.80;;;;;;;;;;5139121;27;20042;-86
2023/10/08 12:06:18;;;;;;;17.92;3.50;;;;;;;;;;5138734;27;20042;-85
2023/10/08 12:08:53;;;;;;;4.68;1.70;;;;;;;;;;5139007;27;20038;-89
2023/10/08 12:11:22;;;;;;;6.18;2.25;;;;;;;;;;5136819;27;20047;-86
2023/10/08 12:13:49;;;;;;;7.68;2.05;;;;;;;;;;5117986;27;20065;-87
2023/10/08 12:16:21;;;;;;;7.07;2.33;;;;;;;;;;5101286;27;20078;-86
2023/10/08 12:18:57;;;;;;;5.68;1.65;;;;;;;;;;5117570;27;20524;-87
2023/10/08 12:21:24;;;;;;;4.65;1.77;;;;;;;;;;5114531;27;20179;-86
2023/10/08 12:23:51;;;;;;;6.30;1.75;;;;;;;;;;5117721;27;20050;-86
2023/10/08 12:26:18;;;;;;;9.00;1.77;;;16.70;1.00;;;;;;5117583;27;20046;-89
2023/10/08 12:28:48;;;;;;;6.93;1.83;;;;;;;;;;5117356;27;20088;-86
2023/10/08 12:31:24;;;;;;;8.88;1.90;;;16.80;1.00;;;;;;5136151;27;20039;-85
2023/10/08 12:33:53;;;;;;;4.25;1.60;;;;;;;;;;5156735;27;20070;-85
2023/10/08 12:36:23;;;;;;;8.48;1.98;;;;;;;;;;5138012;27;20047;-87
2023/10/08 12:38:49;;;;;;;6.43;2.30;;;16.80;1.00;;;;;;5103831;27;20055;-85
2023/10/08 12:41:18;;;;;;;4.78;2.25;;;;;;;;;;5137372;27;20042;-87
2023/10/08 12:43:45;;;;;;;4.63;1.42;;;16.60;1.00;;;;;;5100864;27;20039;-89
2023/10/08 12:46:24;;;;;;;7.38;1.20;;;;;;;;;;5100527;27;20039;-87
2023/10/08 12:48:54;;;;;;;3.72;1.88;;;;;;;;;;5100102;27;20099;-88
2023/10/08 12:51:23;;;;;;;10.15;1.75;;;;;;;;;;5100881;27;20053;-87
2023/10/08 12:53:55;;;;;;;15.20;1.90;;;;;;;;;;5099766;27;20043;-87
2023/10/08 12:56:31;;;;;;;4.65;1.60;;;;;;;;;;5099834;27;20052;-87
2023/10/08 12:58:57;;;;;;;7.28;1.60;;;;;;;;;;5099815;27;20043;-86
2023/10/08 13:01:23;;;;;;;6.47;1.67;;;;;;;;;;5135410;27;20038;-86
2023/10/08 13:03:49;;;;;;;4.07;1.77;;;;;;;;;;5120587;27;20039;-88
2023/10/08 13:06:28;;;;;;;5.60;1.65;;;17.00;1.00;;;;;;5120858;27;20368;-86
2023/10/08 13:08:54;;;;;;;2.05;1.17;;;;;;;;;;5108350;28;20118;-88
2023/10/08 13:11:24;;;;;;;12.25;1.83;;;;;;;;;;5083833;27;20043;-85
2023/10/08 13:13:51;;;;;;;11.15;2.50;;;;;;;;;;5120556;27;20038;-86
2023/10/08 13:16:23;;;;;;;7.90;1.95;;;;;;;;;;5133274;27;20039;-88
2023/10/08 13:18:50;;;;;;;5.50;2.00;;;;;;;;;;5116963;27;20134;-85
2023/10/08 13:21:18;;;;;;;4.95;1.65;;;;;;;;;;5099885;27;20086;-89
2023/10/08 13:23:46;;;;;;;7.57;1.80;;;;;;;;;;5110746;27;20042;-88
2023/10/08 13:26:16;;;;;;;6.88;2.75;;;;;;;;;;5116747;27;20137;-87
2023/10/08 13:28:44;;;;;;;10.23;1.80;;;17.50;1.00;;;;;;5099627;27;20088;-87
2023/10/08 13:31:11;;;;;;;9.60;2.25;;;;;;;;;;5099313;27;20039;-86
2023/10/08 13:33:39;;;;;;;5.70;1.75;;;;;;;;;;5099337;27;20086;-85
2023/10/08 13:36:08;;;;;;;10.98;2.08;;;;;;;;;;5099418;27;20526;-86
2023/10/08 13:38:36;;;;;;;6.72;1.70;;;;;;;;;;5105955;27;20070;-85
2023/10/08 13:41:14;;;;;;;6.78;1.60;;;17.30;1.00;;;;;;5119671;27;20087;-85
2023/10/08 13:43:59;;;;;;;5.47;1.60;;;;;;;;;;5119706;27;20047;-86
2023/10/08 13:46:26;;;;;;;5.57;1.88;;;;;;;;;;5119938;27;20087;-86
2023/10/08 13:48:52;;;;;;;3.10;1.70;;;;;;;;;;5120041;27;20043;-85
2023/10/08 13:51:28;;;;;;;12.65;1.60;;;17.30;1.00;;;;;;5135202;27;20501;-88
2023/10/08 13:53:59;;;;;;;4.25;1.60;;;17.50;1.00;;;;;;5119413;27;20043;-87
2023/10/08 13:56:29;;;;;;;12.05;2.15;;;17.50;1.00;;;;;;5119065;27;20038;-87
2023/10/08 13:58:57;;;;;;;8.38;1.45;;;;;;;;;;5119185;27;20042;-87
2023/10/08 14:01:25;;;;;;;7.88;2.03;;;;;;;;;;5125902;27;20099;-86
2023/10/08 14:04:04;;;;;;;3.90;1.25;;;;;;;;;;5099276;27;20050;-86
2023/10/08 14:06:31;;;;;;;7.95;1.50;;;;;;;;;;5122296;27;20126;-86
2023/10/08 14:09:00;;;;;;;2.70;1.52;;;;;;;;;;5119963;27;20067;-86
2023/10/08 14:11:30;;;;;;;13.23;1.73;;;;;;;;;;5119928;27;20042;-85
2023/10/08 14:14:02;;;;;;;7.10;3.25;;;;;;;;;;5120088;27;20035;-84
2023/10/08 14:16:29;;;;;;;7.63;1.38;;;;;;;;;;5114309;27;20184;-85
2023/10/08 14:18:59;;;;;;;3.08;1.50;;;;;;;;;;5098424;27;20532;-84
2023/10/08 14:21:43;;;;;;;7.95;1.50;;;17.20;1.00;;;;;;5115093;27;20061;-84
2023/10/08 14:24:15;;;;;;;11.65;2.45;;;;;;;;;;5101183;27;20057;-85
2023/10/08 14:26:43;;;;;;;6.15;1.83;;;;;;;;;;5098107;27;20039;-84
2023/10/08 14:29:17;;;;;;;10.07;1.85;;;;;;;;;;5123922;27;20046;-84
2023/10/08 14:31:48;;;;;;;5.90;1.75;;;;;;;;;;5118878;27;20058;-85
2023/10/08 14:44:55;;;;;;;5.15;1.75;;;;;;;;;;5100978;27;20050;-84
2023/10/08 14:47:21;;;;;;;12.55;1.70;;;;;;;;;;5102289;28;20095;-85
2023/10/08 14:49:48;;;;;;;5.70;1.58;;;;;;;;;;5098409;27;20042;-85
2023/10/08 14:52:14;;;;;;;7.13;1.52;;;;;;;;;;5112867;27;20031;-86
2023/10/08 14:54:41;;;;;;;8.00;1.63;;;;;;;;;;5118140;27;20047;-85
2023/10/08 14:57:07;;;;;;;9.95;2.78;;;17.10;1.00;;;;;;5118326;27;20031;-86
2023/10/08 14:59:34;;;;;;;6.53;1.50;;;;;;;;;;5118852;27;20043;-85
2023/10/08 15:02:00;;;;;;;4.05;1.52;;;;;;;;;;5131180;28;20038;-84
2023/10/08 15:04:28;;;;;;;9.13;1.30;;;;;;;;;;5114600;28;20079;-85
2023/10/08 15:06:56;;;;;;;5.30;2.63;;;17.00;1.00;;;;;;5097979;28;20043;-86
2023/10/08 15:09:23;;;;;;;10.27;1.50;;;;;;;;;;5133880;28;20035;-85
2023/10/08 15:11:51;;;;;;;6.55;2.08;;;;;;;;;;5115181;27;20086;-86
2023/10/08 15:14:23;;;;;;;9.20;3.42;;;17.00;1.00;;;;;;5101029;27;20046;-87
2023/10/08 15:16:52;;;;;;;4.95;1.77;;;;;;;;;;5102343;27;20047;-87
2023/10/08 15:19:19;;;;;;;7.85;1.40;;;;;;;;;;5101443;27;20096;-85
2023/10/08 15:21:50;;;;;;;4.13;2.10;;;;;;;;;;5101764;27;20119;-86
2023/10/08 15:24:25;;;;;;;3.70;1.60;;;;;;;;;;5119300;27;20043;-84
2023/10/08 15:26:52;;;;;;;4.75;2.22;;;;;;;;;;5118349;27;20080;-86
2023/10/08 15:29:20;;;;;;;11.98;2.35;;;;;;;;;;5136104;27;20072;-87
2023/10/08 15:31:47;;;;;;;7.70;2.03;;;;;;;;;;5137333;27;20043;-85
2023/10/08 15:34:13;;;;;;;10.52;1.73;;;;;;;;;;5119084;27;20043;-87
2023/10/08 15:36:40;;;;;;;17.95;2.17;;;;;;;;;;5100985;28;20075;-85
2023/10/08 15:39:09;;;;;;;5.85;1.50;;;;;;;;;;5098269;28;20061;-85
2023/10/08 15:41:36;;;;;;;10.13;2.50;;;16.70;1.00;;;;;;5111049;27;20046;-86
2023/10/08 15:44:03;;;;;;;4.70;1.52;;;;;;;;;;5136072;27;20046;-85
2023/10/08 15:46:29;;;;;;;4.43;1.98;;;;;;;;;;5119054;27;20430;-86
2023/10/08 15:48:56;;;;;;;8.45;1.90;;;;;;;;;;5135686;27;20444;-85
2023/10/08 15:51:24;;;;;;;6.47;2.40;;;;;;;;;;5138074;27;20064;-85
2023/10/08 15:53:50;;;;;;;6.43;1.60;;;;;;;;;;5137780;27;20047;-85
2023/10/08 15:56:16;;;;;;;5.13;1.80;;;;;;;;;;5119276;27;20424;-85
2023/10/08 15:58:43;;;;;;;6.15;1.48;;;;;;;;;;5131132;27;20043;-85
2023/10/08 16:01:11;;;;;;;7.10;1.98;;;;;;;;;;5098688;28;20100;-84
2023/10/08 16:03:37;;;;;;;6.20;2.05;;;;;;;;;;5116505;28;20051;-85
2023/10/08 16:06:04;;;;;;;5.75;1.80;;;;;;;;;;5115029;28;20043;-84
2023/10/08 16:08:31;;;;;;;7.60;2.17;;;;;;;;;;5105276;27;20364;-86
2023/10/08 16:10:57;;;;;;;6.68;1.70;;;;;;;;;;5117975;27;20121;-85
2023/10/08 16:13:23;;;;;;;4.75;1.95;;;;;;;;;;5118324;27;20054;-84
2023/10/08 16:15:49;;;;;;;4.80;1.70;;;;;;;;;;5138945;27;20036;-85
2023/10/08 16:18:17;;;;;;;4.80;1.63;;;;;;;;;;5135356;27;20060;-85
2023/10/08 16:20:44;;;;;;;9.65;2.03;;;;;;;;;;5135062;27;20055;-85
2023/10/08 16:23:12;;;;;;;5.38;1.80;;;;;;;;;;5117746;27;20047;-86
2023/10/08 16:25:38;;;;;;;10.70;3.10;;;;;;;;;;5118219;27;20054;-85